createdAt,value
2018-10-12T00:02:19.627Z,100.00
2018-10-12T00:04:48.058Z,100.00
2018-10-12T00:07:16.606Z,100.00
2018-10-12T00:09:45.077Z,100.00
2018-10-12T00:12:13.522Z,100.00
2018-10-12T00:14:42.002Z,100.00
2018-10-12T00:17:10.447Z,100.00
2018-10-12T00:19:38.844Z,100.00
2018-10-12T00:22:07.464Z,100.00
2018-10-12T00:24:35.863Z,100.00
2018-10-12T00:27:04.317Z,100.00
2018-10-12T00:29:32.726Z,100.00
2018-10-12T00:32:01.150Z,100.00
2018-10-12T00:34:29.694Z,100.00
2018-10-12T00:36:58.143Z,100.00
2018-10-12T00:39:26.601Z,100.00
2018-10-12T00:41:55.019Z,100.00
2018-10-12T00:44:23.471Z,100.00
2018-10-12T00:46:51.925Z,100.00
2018-10-12T00:49:20.374Z,100.00
2018-10-12T00:51:48.805Z,100.00
2018-10-12T00:54:17.232Z,100.00
2018-10-12T00:56:45.652Z,100.00
2018-10-12T00:59:14.287Z,100.00
2018-10-12T01:01:42.778Z,100.00
2018-10-12T01:04:11.346Z,100.00
2018-10-12T01:06:39.870Z,100.00
2018-10-12T01:09:08.477Z,100.00
2018-10-12T01:11:36.934Z,100.00
2018-10-12T01:14:05.387Z,100.00
2018-10-12T01:16:33.885Z,100.00
2018-10-12T01:19:02.358Z,100.00
2018-10-12T01:21:30.929Z,100.00
2018-10-12T01:23:59.370Z,100.00
2018-10-12T01:26:28.004Z,100.00
2018-10-12T01:28:57.734Z,100.00
2018-10-12T01:31:27.157Z,100.00
2018-10-12T01:33:55.830Z,100.00
2018-10-12T01:36:24.462Z,100.00
2018-10-12T01:38:52.883Z,100.00
2018-10-12T01:41:21.340Z,100.00
2018-10-12T01:43:49.870Z,100.00
2018-10-12T01:46:18.282Z,100.00
2018-10-12T01:48:46.862Z,100.00
2018-10-12T01:51:15.486Z,100.00
2018-10-12T01:53:43.925Z,100.00
2018-10-12T01:56:12.468Z,100.00
2018-10-12T01:58:40.933Z,100.00
2018-10-12T02:01:09.402Z,100.00
2018-10-12T02:03:37.857Z,100.00
2018-10-12T02:06:06.612Z,100.00
2018-10-12T02:08:35.049Z,100.00
2018-10-12T02:11:03.457Z,100.00
2018-10-12T02:13:31.887Z,100.00
2018-10-12T02:16:00.386Z,100.00
2018-10-12T02:18:28.838Z,100.00
2018-10-12T02:20:57.250Z,100.00
2018-10-12T02:23:25.789Z,100.00
2018-10-12T02:25:54.226Z,100.00
2018-10-12T02:28:22.689Z,100.00
2018-10-12T02:30:51.105Z,100.00
2018-10-12T02:33:19.557Z,100.00
2018-10-12T02:35:47.955Z,100.00
2018-10-12T02:38:16.546Z,100.00
2018-10-12T02:40:44.953Z,100.00
2018-10-12T02:43:13.602Z,100.00
2018-10-12T02:45:42.045Z,100.00
2018-10-12T02:48:10.506Z,100.00
2018-10-12T02:50:38.926Z,100.00
2018-10-12T02:53:07.385Z,100.00
2018-10-12T02:55:35.899Z,100.00
2018-10-12T02:58:04.373Z,100.00
2018-10-12T03:00:32.802Z,100.00
2018-10-12T03:03:01.360Z,100.00
2018-10-12T03:05:29.886Z,100.00
2018-10-12T03:07:58.339Z,100.00
2018-10-12T03:10:26.858Z,100.00
2018-10-12T03:12:55.338Z,100.00
2018-10-12T03:15:23.782Z,100.00
2018-10-12T03:17:52.204Z,100.00
2018-10-12T03:20:20.645Z,100.00
2018-10-12T03:22:49.074Z,100.00
2018-10-12T03:25:17.513Z,100.00
2018-10-12T03:27:57.169Z,100.00
2018-10-12T03:30:25.838Z,100.00
2018-10-12T03:32:54.346Z,100.00
2018-10-12T03:35:22.922Z,100.00
2018-10-12T03:37:51.381Z,100.00
2018-10-12T03:40:19.872Z,100.00
2018-10-12T03:42:48.380Z,100.00
2018-10-12T03:45:16.874Z,100.00
2018-10-12T03:47:45.316Z,100.00
2018-10-12T03:50:13.955Z,100.00
2018-10-12T03:52:42.502Z,100.00
2018-10-12T03:55:11.025Z,100.00
2018-10-12T03:57:39.501Z,100.00
2018-10-12T04:00:08.049Z,100.00
2018-10-12T04:02:36.516Z,100.00
2018-10-12T04:05:05.314Z,100.00
2018-10-12T04:07:33.729Z,100.00
2018-10-12T04:10:02.179Z,100.00
2018-10-12T04:12:30.753Z,100.00
2018-10-12T04:14:59.289Z,100.00
2018-10-12T04:17:27.844Z,100.00
2018-10-12T04:19:56.296Z,100.00
2018-10-12T04:22:26.007Z,100.00
2018-10-12T04:24:54.623Z,100.00
2018-10-12T04:27:23.146Z,100.00
2018-10-12T04:29:51.589Z,100.00
2018-10-12T04:32:20.019Z,100.00
2018-10-12T04:34:48.838Z,100.00
2018-10-12T04:37:17.554Z,100.00
2018-10-12T04:40:00.121Z,100.00
2018-10-12T04:42:28.638Z,100.00
2018-10-12T04:44:57.462Z,100.00
2018-10-12T04:47:28.048Z,100.00
2018-10-12T04:49:57.187Z,100.00
2018-10-12T04:52:26.974Z,100.00
2018-10-12T04:54:55.645Z,100.00
2018-10-12T04:57:24.150Z,100.00
2018-10-12T04:59:52.588Z,100.00
2018-10-12T05:02:21.149Z,100.00
2018-10-12T05:04:49.682Z,100.00
2018-10-12T05:07:18.161Z,100.00
2018-10-12T05:09:46.625Z,100.00
2018-10-12T05:12:15.402Z,100.00
2018-10-12T05:14:43.850Z,100.00
2018-10-12T05:17:12.397Z,100.00
2018-10-12T05:19:40.921Z,100.00
2018-10-12T05:22:09.426Z,100.00
2018-10-12T05:24:37.806Z,100.00
2018-10-12T05:27:06.513Z,100.00
2018-10-12T05:29:35.081Z,100.00
2018-10-12T05:32:03.521Z,100.00
2018-10-12T05:34:32.004Z,100.00
2018-10-12T05:37:00.438Z,100.00
2018-10-12T05:39:28.964Z,100.00
2018-10-12T05:41:57.465Z,100.00
2018-10-12T05:44:25.911Z,100.00
2018-10-12T05:46:54.353Z,100.00
2018-10-12T05:49:34.015Z,100.00
2018-10-12T05:52:02.725Z,100.00
2018-10-12T05:54:31.227Z,100.00
2018-10-12T05:56:59.757Z,100.00
2018-10-12T05:59:28.494Z,100.00
2018-10-12T06:01:56.945Z,100.00
2018-10-12T06:04:25.447Z,100.00
2018-10-12T06:06:54.024Z,100.00
2018-10-12T06:09:22.528Z,100.00
2018-10-12T06:11:50.989Z,100.00
2018-10-12T06:14:19.407Z,100.00
2018-10-12T06:16:47.869Z,100.00
2018-10-12T06:19:16.517Z,100.00
2018-10-12T06:21:45.052Z,100.00
2018-10-12T06:24:13.447Z,100.00
2018-10-12T06:26:41.889Z,100.00
2018-10-12T06:29:10.346Z,100.00
2018-10-12T06:31:38.805Z,100.00
2018-10-12T06:34:07.270Z,100.00
2018-10-12T06:36:35.758Z,100.00
2018-10-12T06:39:05.027Z,100.00
2018-10-12T06:41:33.520Z,100.00
2018-10-12T06:44:02.016Z,100.00
2018-10-12T06:46:30.508Z,100.00
2018-10-12T06:48:58.977Z,100.00
2018-10-12T06:51:27.461Z,100.00
2018-10-12T06:53:55.932Z,100.00
2018-10-12T06:56:24.578Z,100.00
2018-10-12T06:58:53.046Z,100.00
2018-10-12T07:01:21.610Z,100.00
2018-10-12T07:03:50.102Z,100.00
2018-10-12T07:06:18.573Z,100.00
2018-10-12T07:08:47.068Z,100.00
2018-10-12T07:11:15.646Z,100.00
2018-10-12T07:13:44.503Z,100.00
2018-10-12T07:16:12.933Z,100.00
2018-10-12T07:18:41.374Z,100.00
2018-10-12T07:21:09.949Z,100.00
2018-10-12T07:23:38.417Z,100.00
2018-10-12T07:26:07.063Z,100.00
2018-10-12T07:28:35.786Z,100.00
2018-10-12T07:31:04.226Z,100.00
2018-10-12T07:33:32.829Z,100.00
2018-10-12T07:36:01.291Z,100.00
2018-10-12T07:38:29.805Z,100.00
2018-10-12T07:40:58.246Z,100.00
2018-10-12T07:43:27.023Z,98.96
2018-10-12T07:45:55.504Z,97.94
2018-10-12T07:48:23.962Z,96.71
2018-10-12T07:50:52.419Z,97.96
2018-10-12T07:53:21.223Z,96.38
2018-10-12T07:55:49.692Z,98.97
2018-10-12T07:58:18.189Z,97.17
2018-10-12T08:00:46.692Z,93.68
2018-10-12T08:03:15.260Z,89.20
2018-10-12T08:05:43.813Z,87.99
2018-10-12T08:08:12.278Z,86.99
2018-10-12T08:10:40.887Z,87.76
2018-10-12T08:13:09.318Z,86.45
2018-10-12T08:15:37.786Z,86.05
2018-10-12T08:18:06.331Z,84.64
2018-10-12T08:20:34.789Z,84.60
2018-10-12T08:23:03.257Z,84.27
2018-10-12T08:25:31.709Z,82.43
2018-10-12T08:28:00.156Z,82.66
2018-10-12T08:30:28.669Z,82.53
2018-10-12T08:32:57.213Z,83.11
2018-10-12T08:35:25.649Z,82.02
2018-10-12T08:37:54.128Z,80.45
2018-10-12T08:40:22.577Z,80.05
2018-10-12T08:42:51.028Z,78.24
2018-10-12T08:45:19.458Z,76.70
2018-10-12T08:47:47.885Z,75.96
2018-10-12T08:50:16.346Z,75.45
2018-10-12T08:52:44.785Z,74.66
2018-10-12T08:55:13.466Z,75.19
2018-10-12T08:57:41.923Z,75.08
2018-10-12T09:00:10.383Z,76.10
2018-10-12T09:02:38.814Z,75.25
2018-10-12T09:05:07.398Z,73.91
2018-10-12T09:07:35.907Z,74.71
2018-10-12T09:10:04.955Z,73.93
2018-10-12T09:12:33.382Z,75.05
2018-10-12T09:15:01.826Z,74.39
2018-10-12T09:17:30.462Z,73.27
2018-10-12T09:19:59.274Z,73.75
2018-10-12T09:22:27.803Z,72.71
2018-10-12T09:24:56.278Z,69.95
2018-10-12T09:27:24.714Z,68.61
2018-10-12T09:29:53.154Z,67.62
2018-10-12T09:32:21.605Z,66.70
2018-10-12T09:34:50.054Z,64.76
2018-10-12T09:37:18.526Z,64.16
2018-10-12T09:39:46.969Z,60.33
2018-10-12T09:42:15.586Z,58.43
2018-10-12T09:44:44.078Z,56.69
2018-10-12T09:47:12.497Z,54.35
2018-10-12T09:49:41.016Z,54.64
2018-10-12T09:52:09.430Z,52.44
2018-10-12T09:54:37.876Z,52.45
2018-10-12T09:57:11.426Z,51.88
2018-10-12T09:59:39.855Z,49.08
2018-10-12T10:02:13.819Z,49.78
2018-10-12T10:04:42.246Z,46.93
2018-10-12T10:07:10.750Z,46.40
2018-10-12T10:09:39.210Z,46.21
2018-10-12T10:12:07.705Z,45.08
2018-10-12T10:14:36.310Z,45.71
2018-10-12T10:17:04.727Z,44.73
2018-10-12T10:19:33.145Z,43.93
2018-10-12T10:22:01.738Z,42.93
2018-10-12T10:24:30.334Z,42.38
2018-10-12T10:26:58.732Z,41.37
2018-10-12T10:29:27.457Z,41.40
2018-10-12T10:31:55.866Z,39.34
2018-10-12T10:34:24.326Z,39.08
2018-10-12T10:36:52.754Z,39.00
2018-10-12T10:39:21.265Z,38.16
2018-10-12T10:41:49.737Z,39.16
2018-10-12T10:44:18.227Z,37.32
2018-10-12T10:46:46.693Z,36.26
2018-10-12T10:49:15.265Z,33.97
2018-10-12T10:51:43.848Z,34.52
2018-10-12T10:54:12.297Z,33.32
2018-10-12T10:56:40.887Z,34.59
2018-10-12T10:59:09.351Z,34.66
2018-10-12T11:01:37.758Z,34.29
2018-10-12T11:04:06.379Z,33.64
2018-10-12T11:06:34.855Z,32.22
2018-10-12T11:09:03.484Z,30.81
2018-10-12T11:11:31.910Z,30.21
2018-10-12T11:14:00.333Z,29.86
2018-10-12T11:16:28.797Z,29.25
2018-10-12T11:18:57.326Z,28.30
2018-10-12T11:21:25.837Z,27.15
2018-10-12T11:23:54.309Z,26.66
2018-10-12T11:26:22.774Z,27.70
2018-10-12T11:28:51.270Z,27.55
2018-10-12T11:31:19.810Z,26.09
2018-10-12T11:33:48.233Z,24.32
2018-10-12T11:36:16.766Z,23.94
2018-10-12T11:38:45.250Z,24.41
2018-10-12T11:41:13.828Z,24.06
2018-10-12T11:43:42.302Z,22.70
2018-10-12T11:46:10.747Z,23.32
2018-10-12T11:48:39.268Z,21.58
2018-10-12T11:51:07.984Z,19.01
2018-10-12T11:53:36.418Z,19.53
2018-10-12T11:56:04.857Z,21.31
2018-10-12T11:58:33.261Z,21.58
2018-10-12T12:01:01.797Z,20.69
2018-10-12T12:03:30.229Z,21.38
2018-10-12T12:05:58.670Z,20.82
2018-10-12T12:08:27.134Z,21.55
2018-10-12T12:10:55.663Z,21.58
2018-10-12T12:13:24.157Z,19.32
2018-10-12T12:15:52.559Z,19.23
2018-10-12T12:18:21.006Z,20.86
2018-10-12T12:20:49.479Z,18.75
2018-10-12T12:23:17.914Z,20.40
2018-10-12T12:25:46.415Z,19.08
2018-10-12T12:28:14.870Z,19.32
2018-10-12T12:30:43.310Z,18.83
2018-10-12T12:33:11.770Z,17.63
2018-10-12T12:35:40.581Z,18.46
2018-10-12T12:38:09.033Z,18.81
2018-10-12T12:40:37.476Z,18.28
2018-10-12T12:43:05.913Z,17.93
2018-10-12T12:45:34.344Z,17.53
2018-10-12T12:48:02.863Z,17.31
2018-10-12T12:50:31.277Z,17.22
2018-10-12T12:52:59.690Z,19.52
2018-10-12T12:55:28.282Z,18.41
2018-10-12T12:57:56.722Z,18.27
2018-10-12T13:00:25.411Z,18.02
2018-10-12T13:02:53.953Z,16.85
2018-10-12T13:05:22.352Z,17.12
2018-10-12T13:07:50.801Z,16.92
2018-10-12T13:10:19.238Z,16.98
2018-10-12T13:12:47.682Z,16.89
2018-10-12T13:15:16.245Z,17.29
2018-10-12T13:17:44.665Z,16.87
2018-10-12T13:20:13.070Z,16.52
2018-10-12T13:22:41.783Z,16.79
2018-10-12T13:25:10.196Z,15.90
2018-10-12T13:27:38.617Z,15.49
2018-10-12T13:30:07.041Z,15.76
2018-10-12T13:32:35.477Z,16.11
2018-10-12T13:35:03.986Z,15.14
2018-10-12T13:37:32.464Z,15.04
2018-10-12T13:40:00.855Z,16.30
2018-10-12T13:42:29.322Z,16.43
2018-10-12T13:44:57.741Z,17.31
2018-10-12T13:47:26.229Z,15.62
2018-10-12T13:49:54.638Z,16.60
2018-10-12T13:52:23.089Z,15.73
2018-10-12T13:54:51.497Z,15.85
2018-10-12T13:57:20.033Z,17.64
2018-10-12T13:59:48.538Z,17.92
2018-10-12T14:02:17.170Z,18.12
2018-10-12T14:04:45.565Z,17.33
2018-10-12T14:07:14.144Z,16.27
2018-10-12T14:09:42.607Z,17.08
2018-10-12T14:12:11.066Z,16.35
2018-10-12T14:14:39.573Z,16.30
2018-10-12T14:17:08.107Z,17.68
2018-10-12T14:19:36.523Z,18.01
2018-10-12T14:22:04.984Z,18.75
2018-10-12T14:24:33.394Z,18.81
2018-10-12T14:27:01.877Z,19.85
2018-10-12T14:29:30.321Z,18.73
2018-10-12T14:31:58.753Z,17.96
2018-10-12T14:34:27.565Z,20.22
2018-10-12T14:36:56.126Z,21.00
2018-10-12T14:39:24.582Z,20.49
2018-10-12T14:41:53.090Z,19.83
2018-10-12T14:44:21.818Z,19.09
2018-10-12T14:46:50.258Z,20.13
2018-10-12T14:49:18.682Z,19.60
2018-10-12T14:51:47.224Z,17.94
2018-10-12T14:54:15.902Z,16.94
2018-10-12T14:56:44.332Z,16.95
2018-10-12T14:59:12.834Z,17.78
2018-10-12T15:01:41.270Z,17.51
2018-10-12T15:04:09.989Z,16.39
2018-10-12T15:06:38.409Z,17.38
2018-10-12T15:09:10.016Z,16.50
2018-10-12T15:11:38.462Z,16.75
2018-10-12T15:14:07.117Z,19.00
2018-10-12T15:16:35.567Z,19.51
2018-10-12T15:19:04.262Z,19.53
2018-10-12T15:21:32.828Z,19.56
2018-10-12T15:24:01.242Z,19.47
2018-10-12T15:26:29.930Z,19.48
2018-10-12T15:28:58.481Z,20.27
2018-10-12T15:31:26.916Z,22.14
2018-10-12T15:33:55.358Z,23.31
2018-10-12T15:36:23.829Z,27.56
2018-10-12T15:38:52.914Z,32.13
2018-10-12T15:41:21.425Z,36.10
2018-10-12T15:43:49.884Z,38.28
2018-10-12T15:46:18.329Z,39.65
2018-10-12T15:48:46.798Z,40.32
2018-10-12T15:51:15.549Z,41.70
2018-10-12T15:53:44.033Z,42.06
2018-10-12T15:56:12.516Z,42.85
2018-10-12T15:58:40.944Z,42.96
2018-10-12T16:01:09.421Z,44.03
2018-10-12T16:03:37.865Z,43.72
2018-10-12T16:06:06.297Z,44.29
2018-10-12T16:08:34.775Z,45.18
2018-10-12T16:11:03.348Z,45.12
2018-10-12T16:13:31.855Z,45.76
2018-10-12T16:16:00.289Z,45.22
2018-10-12T16:18:28.791Z,46.35
2018-10-12T16:20:57.206Z,46.62
2018-10-12T16:23:25.756Z,47.13
2018-10-12T16:26:06.678Z,47.44
2018-10-12T16:28:35.162Z,48.15
2018-10-12T16:31:03.628Z,48.92
2018-10-12T16:33:32.081Z,49.02
2018-10-12T16:36:00.677Z,49.94
2018-10-12T16:38:29.038Z,50.40
2018-10-12T16:40:57.503Z,50.88
2018-10-12T16:43:26.320Z,51.62
2018-10-12T16:45:54.878Z,52.26
2018-10-12T16:48:23.290Z,52.54
2018-10-12T16:50:51.842Z,52.91
2018-10-12T16:53:20.255Z,53.45
2018-10-12T16:55:48.761Z,53.66
2018-10-12T16:58:17.396Z,54.26
2018-10-12T17:00:45.881Z,54.91
2018-10-12T17:03:14.539Z,55.28
2018-10-12T17:05:43.023Z,55.55
2018-10-12T17:08:11.762Z,55.86
2018-10-12T17:10:40.177Z,56.85
2018-10-12T17:13:08.947Z,56.48
2018-10-12T17:15:37.366Z,56.10
2018-10-12T17:18:05.961Z,56.79
2018-10-12T17:20:34.378Z,57.31
2018-10-12T17:23:02.839Z,57.70
2018-10-12T17:25:31.289Z,58.02
2018-10-12T17:27:59.686Z,58.43
2018-10-12T17:30:28.415Z,58.89
2018-10-12T17:32:56.744Z,59.64
2018-10-12T17:35:25.201Z,59.51
2018-10-12T17:37:53.612Z,59.49
2018-10-12T17:40:22.091Z,60.57
2018-10-12T17:42:50.604Z,60.55
2018-10-12T17:45:19.057Z,60.40
2018-10-12T17:47:47.732Z,60.68
2018-10-12T17:50:16.434Z,61.14
2018-10-12T17:52:44.966Z,61.07
2018-10-12T17:55:13.425Z,60.92
2018-10-12T17:57:42.158Z,61.57
2018-10-12T18:00:11.108Z,61.01
2018-10-12T18:02:39.525Z,61.03
2018-10-12T18:05:08.814Z,61.15
2018-10-12T18:07:37.493Z,61.26
2018-10-12T18:10:07.021Z,61.81
2018-10-12T18:12:35.548Z,62.27
2018-10-12T18:15:04.153Z,62.02
2018-10-12T18:17:32.580Z,62.75
2018-10-12T18:20:01.057Z,63.70
2018-10-12T18:22:29.673Z,63.24
2018-10-12T18:24:58.116Z,63.61
2018-10-12T18:27:26.609Z,64.92
2018-10-12T18:29:55.212Z,65.54
2018-10-12T18:32:23.690Z,65.35
2018-10-12T18:34:52.346Z,65.71
2018-10-12T18:37:20.965Z,65.75
2018-10-12T18:39:49.442Z,64.96
2018-10-12T18:42:17.944Z,64.29
2018-10-12T18:44:46.525Z,64.96
2018-10-12T18:47:15.025Z,64.96
2018-10-12T18:49:43.455Z,65.68
2018-10-12T18:52:11.966Z,66.10
2018-10-12T18:54:40.405Z,67.12
2018-10-12T18:57:09.116Z,67.54
2018-10-12T18:59:37.553Z,67.91
2018-10-12T19:02:06.113Z,68.11
2018-10-12T19:04:34.658Z,68.71
2018-10-12T19:07:03.354Z,69.67
2018-10-12T19:09:31.766Z,69.90
2018-10-12T19:12:00.366Z,70.25
2018-10-12T19:14:28.901Z,70.72
2018-10-12T19:16:57.598Z,72.10
2018-10-12T19:19:26.122Z,72.71
2018-10-12T19:21:54.561Z,73.01
2018-10-12T19:24:23.105Z,73.54
2018-10-12T19:26:51.565Z,74.48
2018-10-12T19:29:20.088Z,74.54
2018-10-12T19:31:48.603Z,74.75
2018-10-12T19:34:17.265Z,75.89
2018-10-12T19:36:45.713Z,75.56
2018-10-12T19:39:14.231Z,75.29
2018-10-12T19:41:42.710Z,75.52
2018-10-12T19:44:11.126Z,75.35
2018-10-12T19:46:39.857Z,75.63
2018-10-12T19:49:08.334Z,75.83
2018-10-12T19:51:36.830Z,76.27
2018-10-12T19:54:05.293Z,77.06
2018-10-12T19:56:33.923Z,78.22
2018-10-12T19:59:02.422Z,78.62
2018-10-12T20:01:31.020Z,79.60
2018-10-12T20:03:59.535Z,80.03
2018-10-12T20:06:28.090Z,79.85
2018-10-12T20:08:56.582Z,81.02
2018-10-12T20:11:25.010Z,80.29
2018-10-12T20:13:53.805Z,80.15
2018-10-12T20:16:22.205Z,81.09
2018-10-12T20:18:50.741Z,81.29
2018-10-12T20:21:20.060Z,81.46
2018-10-12T20:23:48.551Z,81.72
2018-10-12T20:26:17.019Z,81.66
2018-10-12T20:28:45.635Z,81.54
2018-10-12T20:31:14.038Z,82.50
2018-10-12T20:33:42.550Z,83.54
2018-10-12T20:36:10.990Z,83.14
2018-10-12T20:38:39.420Z,83.74
2018-10-12T20:41:08.038Z,84.80
2018-10-12T20:43:36.650Z,85.46
2018-10-12T20:46:05.606Z,85.91
2018-10-12T20:48:34.064Z,86.74
2018-10-12T20:51:02.661Z,86.64
2018-10-12T20:53:31.222Z,87.14
2018-10-12T20:55:59.778Z,87.05
2018-10-12T20:58:28.593Z,87.32
2018-10-12T21:00:57.139Z,87.75
2018-10-12T21:03:25.633Z,87.71
2018-10-12T21:05:54.073Z,88.06
2018-10-12T21:08:22.585Z,88.47
2018-10-12T21:10:51.281Z,88.17
2018-10-12T21:13:20.061Z,87.71
2018-10-12T21:15:48.606Z,89.12
2018-10-12T21:18:17.410Z,89.72
2018-10-12T21:20:45.839Z,90.80
2018-10-12T21:23:14.457Z,91.68
2018-10-12T21:25:42.965Z,92.90
2018-10-12T21:28:11.397Z,93.11
2018-10-12T21:30:39.825Z,93.83
2018-10-12T21:33:08.480Z,94.65
2018-10-12T21:35:36.959Z,95.57
2018-10-12T21:38:05.459Z,95.89
2018-10-12T21:40:34.002Z,95.96
2018-10-12T21:43:02.453Z,96.74
2018-10-12T21:45:31.087Z,97.35
2018-10-12T21:47:59.494Z,96.88
2018-10-12T21:50:28.082Z,96.83
2018-10-12T21:52:56.445Z,97.19
2018-10-12T21:55:25.034Z,97.98
2018-10-12T21:57:53.438Z,98.57
2018-10-12T22:00:22.110Z,98.60
2018-10-12T22:02:50.861Z,99.10
2018-10-12T22:05:19.290Z,99.11
2018-10-12T22:07:47.830Z,100.00
2018-10-12T22:10:16.353Z,100.00
2018-10-12T22:12:44.929Z,100.00
2018-10-12T22:15:13.350Z,100.00
2018-10-12T22:17:41.862Z,100.00
2018-10-12T22:20:10.291Z,100.00
2018-10-12T22:22:38.815Z,100.00
2018-10-12T22:25:07.394Z,100.00
2018-10-12T22:27:35.798Z,99.91
2018-10-12T22:30:04.830Z,97.80
2018-10-12T22:32:33.253Z,97.44
2018-10-12T22:35:01.721Z,97.90
2018-10-12T22:37:30.179Z,98.32
2018-10-12T22:39:58.630Z,98.62
2018-10-12T22:42:27.049Z,99.62
2018-10-12T22:44:55.810Z,100.00
2018-10-12T22:47:24.251Z,100.00
2018-10-12T22:49:52.722Z,100.00
2018-10-12T22:52:21.162Z,100.00
2018-10-12T22:54:49.628Z,100.00
2018-10-12T22:57:18.189Z,97.47
2018-10-12T22:59:46.619Z,97.58
2018-10-12T23:02:15.130Z,96.42
2018-10-12T23:04:43.553Z,97.48
2018-10-12T23:07:12.042Z,97.88
2018-10-12T23:09:40.461Z,98.53
2018-10-12T23:12:08.873Z,99.02
2018-10-12T23:14:37.333Z,99.77
2018-10-12T23:17:05.791Z,99.02
2018-10-12T23:19:34.210Z,99.68
2018-10-12T23:22:02.634Z,100.00
2018-10-12T23:24:31.095Z,100.00
2018-10-12T23:26:59.529Z,100.00
2018-10-12T23:29:28.189Z,100.00
2018-10-12T23:31:56.629Z,100.00
2018-10-12T23:34:25.194Z,100.00
2018-10-12T23:36:53.624Z,100.00
2018-10-12T23:39:22.029Z,100.00
2018-10-12T23:41:50.457Z,100.00
2018-10-12T23:44:18.897Z,100.00
2018-10-12T23:46:47.321Z,100.00
2018-10-12T23:49:15.893Z,100.00
2018-10-12T23:51:44.322Z,100.00
2018-10-12T23:54:12.799Z,100.00
2018-10-12T23:56:41.226Z,100.00
2018-10-12T23:59:09.628Z,100.00
